Home > Products > Valid Products > TAF

000
FTUS43 KGRR 242300
TAFGRR
TAF
KGRR 242340Z 2500/2524 08003KT P6SM VCSH BKN100
     FM250500 08007KT P6SM -SHRA OVC040
     FM250900 08013KT P6SM BKN080=



000
FTUS43 KGRR 242300
TAFMKG
TAF
KMKG 242340Z 2500/2524 30004KT P6SM VCSH BKN090
     FM250500 08006KT P6SM -SHRA OVC040
     FM251000 08013KT P6SM BKN080=



000
FTUS43 KGRR 242300
TAFLAN
TAF
KLAN 242340Z 2500/2524 31003KT P6SM BKN150
     FM250500 10006KT P6SM -SHRA OVC060
     FM250800 09009KT P6SM BKN080=



000
FTUS43 KGRR 242300
TAFJXN
TAF
KJXN 242340Z 2500/2524 04003KT P6SM VCSH BKN150
     FM250500 10004KT P6SM -SHRA OVC040
     FM251100 10011KT P6SM BKN080=



000
FTUS43 KGRR 242300
TAFBTL
TAF
KBTL 242340Z 2500/2524 16004KT P6SM -SHRA BKN070
     FM250500 08003KT P6SM -SHRA OVC040
     FM251400 10012KT P6SM OVC035=



000
FTUS43 KGRR 242300
TAFMKG
TAF
KMKG 242340Z 2500/2524 30004KT P6SM VCSH BKN090
     FM250500 08006KT P6SM -SHRA OVC040
     FM251000 08013KT P6SM BKN080=



000
FTUS43 KGRR 242300
TAFAZO
TAF
KAZO 242340Z 2500/2524 16004KT P6SM -SHRA BKN070
     FM250500 08003KT P6SM -SHRA OVC040
     FM251400 10012KT P6SM OVC035=



000
FTUS43 KGRR 242300
TAFBTL
TAF
KBTL 242340Z 2500/2524 16004KT P6SM -SHRA BKN070
     FM250500 08003KT P6SM -SHRA OVC040
     FM251400 10012KT P6SM OVC035=



000
FTUS43 KGRR 242300
TAFJXN
TAF
KJXN 242340Z 2500/2524 04003KT P6SM VCSH BKN150
     FM250500 10004KT P6SM -SHRA OVC040
     FM251100 10011KT P6SM BKN080=



000
FTUS43 KGRR 242300
TAFGRR
TAF
KGRR 242340Z 2500/2524 08003KT P6SM VCSH BKN100
     FM250500 08007KT P6SM -SHRA OVC040
     FM250900 08013KT P6SM BKN080=



000
FTUS43 KGRR 242300
TAFAZO
TAF
KAZO 242340Z 2500/2524 16004KT P6SM -SHRA BKN070
     FM250500 08003KT P6SM -SHRA OVC040
     FM251400 10012KT P6SM OVC035=



000
FTUS43 KGRR 242300
TAFLAN
TAF
KLAN 242340Z 2500/2524 31003KT P6SM BKN150
     FM250500 10006KT P6SM -SHRA OVC060
     FM250800 09009KT P6SM BKN080=



000
FTUS43 KGRR 241700
TAFGRR
TAF
KGRR 241724Z 2418/2518 21006KT P6SM BKN150
     FM250500 08007KT P6SM -SHRA OVC040
     FM250900 08013KT P6SM BKN080=



000
FTUS43 KGRR 241700
TAFLAN
TAF
KLAN 241724Z 2418/2518 31006KT P6SM BKN150
     FM250500 10006KT P6SM -SHRA OVC060
     FM250800 09006KT P6SM BKN080
     FM251200 10012KT P6SM BKN080=



000
FTUS43 KGRR 241700
TAFBTL
TAF
KBTL 241724Z 2418/2518 33006KT P6SM BKN150
     FM250500 10006KT P6SM -SHRA OVC040
     FM251100 10013KT P6SM OVC040
     FM251500 10012KT P6SM BKN080=



000
FTUS43 KGRR 241700
TAFJXN
TAF
KJXN 241724Z 2418/2518 34006KT P6SM BKN150
     FM250500 10004KT P6SM -SHRA OVC040
     FM251100 10011KT P6SM BKN080=



000
FTUS43 KGRR 241700
TAFAZO
TAF
KAZO 241724Z 2418/2518 24006KT P6SM BKN150
     FM250500 08003KT P6SM -SHRA OVC040
     FM251400 10012KT P6SM OVC035=



000
FTUS43 KGRR 241700
TAFMKG
TAF
KMKG 241724Z 2418/2518 30008KT P6SM BKN150
     FM250500 08006KT P6SM -SHRA OVC040
     FM251000 08013KT P6SM BKN080=



000
FTUS43 KGRR 241100
TAFMKG
TAF
KMKG 241120Z 2412/2512 10004KT P6SM SCT100
     FM241800 27008KT P6SM BKN080
     FM250300 09009KT P6SM OVC070=



000
FTUS43 KGRR 241100
TAFBTL
TAF
KBTL 241120Z 2412/2512 VRB04KT P6SM SCT100
     FM241800 27007KT P6SM BKN080
     FM250300 09006KT P6SM VCSH OVC060=



000
FTUS43 KGRR 241100
TAFJXN
TAF
KJXN 241120Z 2412/2512 VRB04KT P6SM SCT100
     FM241800 27007KT P6SM BKN080
     FM250300 09006KT P6SM OVC060=



000
FTUS43 KGRR 241100
TAFLAN
TAF
KLAN 241120Z 2412/2512 VRB04KT P6SM SCT100
     FM241800 27007KT P6SM BKN080
     FM250300 09006KT P6SM OVC060=



000
FTUS43 KGRR 241100
TAFJXN
TAF
KJXN 241120Z 2412/2512 VRB04KT P6SM SCT100
     FM241800 27007KT P6SM BKN080
     FM250300 09006KT P6SM OVC060=



000
FTUS43 KGRR 241100
TAFMKG
TAF
KMKG 241120Z 2412/2512 10004KT P6SM SCT100
     FM241800 27008KT P6SM BKN080
     FM250300 09009KT P6SM OVC070=



000
FTUS43 KGRR 241100
TAFAZO
TAF
KAZO 241120Z 2412/2512 VRB04KT P6SM SCT100
     FM241800 27007KT P6SM BKN080
     FM250300 09006KT P6SM VCSH OVC060=



000
FTUS43 KGRR 241100
TAFGRR
TAF
KGRR 241120Z 2412/2512 12004KT P6SM SCT100
     FM241800 27007KT P6SM BKN080
     FM250300 09008KT P6SM OVC070=



000
FTUS43 KGRR 241100
TAFAZO
TAF
KAZO 241120Z 2412/2512 VRB04KT P6SM SCT100
     FM241800 27007KT P6SM BKN080
     FM250300 09006KT P6SM VCSH OVC060=



000
FTUS43 KGRR 241100
TAFBTL
TAF
KBTL 241120Z 2412/2512 VRB04KT P6SM SCT100
     FM241800 27007KT P6SM BKN080
     FM250300 09006KT P6SM VCSH OVC060=



000
FTUS43 KGRR 241100
TAFGRR
TAF
KGRR 241120Z 2412/2512 12004KT P6SM SCT100
     FM241800 27007KT P6SM BKN080
     FM250300 09008KT P6SM OVC070=



000
FTUS43 KGRR 241100
TAFLAN
TAF
KLAN 241120Z 2412/2512 VRB04KT P6SM SCT100
     FM241800 27007KT P6SM BKN080
     FM250300 09006KT P6SM OVC060=



000
FTUS43 KGRR 240500
TAFAZO
TAF
KAZO 240540Z 2406/2506 VRB02KT P6SM SKC
     FM241800 28006KT P6SM BKN150=



000
FTUS43 KGRR 240500
TAFJXN
TAF
KJXN 240540Z 2406/2506 VRB02KT P6SM SKC
     FM241900 28006KT P6SM BKN150=



000
FTUS43 KGRR 240500
TAFLAN
TAF
KLAN 240540Z 2406/2506 VRB02KT P6SM SKC
     FM241900 28006KT P6SM BKN150=



000
FTUS43 KGRR 240500
TAFMKG
TAF
KMKG 240540Z 2406/2506 00000KT P6SM SKC
     FM241500 28006KT P6SM BKN150=



000
FTUS43 KGRR 240500
TAFBTL
TAF
KBTL 240540Z 2406/2506 VRB02KT P6SM SKC
     FM241800 28006KT P6SM BKN150=



000
FTUS43 KGRR 240500
TAFGRR
TAF
KGRR 240540Z 2406/2506 VRB02KT P6SM SKC
     FM241700 28006KT P6SM BKN150=



000
FTUS43 KGRR 232300
TAFGRR
TAF
KGRR 232340Z 2400/2424 31012G18KT P6SM SCT050
     FM240100 28004KT P6SM SCT250=



000
FTUS43 KGRR 232300
TAFLAN
TAF
KLAN 232340Z 2400/2424 30011G17KT P6SM SCT050
     FM240100 29003KT P6SM SCT250=



000
FTUS43 KGRR 232300
TAFMKG
TAF
KMKG 232340Z 2400/2424 28004KT P6SM SCT250=



000
FTUS43 KGRR 232300
TAFJXN
TAF
KJXN 232340Z 2400/2424 31011G17KT P6SM SCT050
     FM240100 29003KT P6SM SCT250=



000
FTUS43 KGRR 232300
TAFJXN
TAF
KJXN 232340Z 2400/2424 31011G17KT P6SM SCT050
     FM240100 29003KT P6SM SCT250=



000
FTUS43 KGRR 232300
TAFMKG
TAF
KMKG 232340Z 2400/2424 28004KT P6SM SCT250=



000
FTUS43 KGRR 232300
TAFBTL
TAF
KBTL 232340Z 2400/2424 30010G16KT P6SM SCT050
     FM240100 28003KT P6SM SCT250=



000
FTUS43 KGRR 232300
TAFGRR
TAF
KGRR 232340Z 2400/2424 31012G18KT P6SM SCT050
     FM240100 28004KT P6SM SCT250=



000
FTUS43 KGRR 232300
TAFBTL
TAF
KBTL 232340Z 2400/2424 30010G16KT P6SM SCT050
     FM240100 28003KT P6SM SCT250=



000
FTUS43 KGRR 232300
TAFLAN
TAF
KLAN 232340Z 2400/2424 30011G17KT P6SM SCT050
     FM240100 29003KT P6SM SCT250=



000
FTUS43 KGRR 232300
TAFAZO
TAF
KAZO 232340Z 2400/2424 30010G16KT P6SM SCT050
     FM240100 28003KT P6SM SCT250=



000
FTUS43 KGRR 232300
TAFAZO
TAF
KAZO 232340Z 2400/2424 30010G16KT P6SM SCT050
     FM240100 28003KT P6SM SCT250=



000
FTUS43 KGRR 231700
TAFGRR
TAF
KGRR 231727Z 2318/2418 29012KT P6SM BKN040
     FM232000 28012G18KT P6SM SCT050
     FM240100 28004KT P6SM SCT250=



000
FTUS43 KGRR 231700
TAFLAN
TAF
KLAN 231727Z 2318/2418 30014KT P6SM BKN040
     FM232045 30011G17KT P6SM SCT050
     FM240100 29003KT P6SM SCT250=



000
FTUS43 KGRR 231700
TAFJXN
TAF
KJXN 231727Z 2318/2418 31012KT P6SM BKN040
     FM232045 31011G17KT P6SM SCT050
     FM240000 29003KT P6SM SCT250=



000
FTUS43 KGRR 231700
TAFAZO
TAF
KAZO 231727Z 2318/2418 30014KT P6SM BKN040
     FM232000 30013G19KT P6SM SCT050
     FM240100 28003KT P6SM SCT250=



000
FTUS43 KGRR 231700
TAFMKG
TAF
KMKG 231727Z 2318/2418 30012KT P6SM BKN040
     FM231915 30012G18KT P6SM SCT050
     FM232300 28004KT P6SM SCT250=



000
FTUS43 KGRR 231700
TAFBTL
TAF
KBTL 231727Z 2318/2418 31015KT P6SM BKN040
     FM232015 30012G18KT P6SM SCT050
     FM240100 28003KT P6SM SCT250=



000
FTUS43 KGRR 231500 AAB
TAFJXN
TAF AMD
KJXN 231537Z 2316/2412 31015G21KT P6SM BKN040
      TEMPO 2316/2317 BKN025
     FM232300 29007KT P6SM SCT050
     FM240300 VRB03KT P6SM SKC=



000
FTUS43 KGRR 231500 AAB
TAFBTL
TAF AMD
KBTL 231535Z 2316/2412 31014KT P6SM BKN040
      TEMPO 2316/2317 BKN025
     FM232200 28008KT P6SM SCT050
     FM240300 VRB03KT P6SM SKC=



000
FTUS43 KGRR 231500 AAB
TAFAZO
TAF AMD
KAZO 231534Z 2316/2412 31013KT P6SM BKN040
      TEMPO 2316/2317 BKN025
     FM232300 29007KT P6SM SCT050
     FM240300 VRB03KT P6SM SKC=



000
FTUS43 KGRR 231500 AAB
TAFAZO
TAF AMD
KAZO 231534Z 2316/2412 31013KT P6SM BKN040
      TEMPO 2316/2317 BKN025
     FM232300 29007KT P6SM SCT050
     FM240300 VRB03KT P6SM SKC=



000
FTUS43 KGRR 231500 AAA
TAFGRR
TAF AMD
KGRR 231531Z 2316/2412 30014KT P6SM BKN045
     FM232000 28011KT P6SM BKN050
     FM240300 VRB03KT P6SM SKC=



000
FTUS43 KGRR 231500 AAA
TAFMKG
TAF AMD
KMKG 231529Z 2315/2412 30010KT P6SM BKN050
     FM231900 28008KT P6SM BKN050
     FM240300 VRB03KT P6SM SKC=



000
FTUS43 KGRR 231500 AAA
TAFMKG
TAF AMD
KMKG 231529Z 2315/2412 30010KT P6SM BKN050
     FM231900 28008KT P6SM BKN050
     FM240300 VRB03KT P6SM SKC=



000
FTUS43 KGRR 231300 AAA
TAFJXN
TAF AMD
KJXN 231328Z 2313/2412 31012G19KT P6SM BKN025
     FM231600 30012G21KT P6SM BKN050
     FM232300 29007KT P6SM SCT050
     FM240300 VRB03KT P6SM SKC=



000
FTUS43 KGRR 231300 AAA
TAFBTL
TAF AMD
KBTL 231326Z 2313/2412 30010KT P6SM BKN025
     FM231600 31011G19KT P6SM BKN050
     FM232200 28008KT P6SM SCT050
     FM240300 VRB03KT P6SM SKC=



000
FTUS43 KGRR 231300 AAA
TAFAZO
TAF AMD
KAZO 231325Z 2313/2412 31011KT P6SM BKN025
     FM231600 31012G19KT P6SM BKN050
     FM232300 29007KT P6SM SCT050
     FM240300 VRB03KT P6SM SKC=



000
FTUS43 KGRR 231100
TAFJXN
TAF
KJXN 231139Z 2312/2412 31011G19KT P6SM BKN050
     FM232300 28009KT P6SM BKN050
     FM240300 VRB03KT P6SM SKC=



000
FTUS43 KGRR 231100
TAFGRR
TAF
KGRR 231139Z 2312/2412 32012G20KT P6SM BKN050
     FM232000 28009KT P6SM BKN050
     FM240300 VRB03KT P6SM SKC=



000
FTUS43 KGRR 231100
TAFAZO
TAF
KAZO 231139Z 2312/2412 31011G19KT P6SM BKN050
     FM232100 28009KT P6SM BKN050
     FM240300 VRB03KT P6SM SKC=



000
FTUS43 KGRR 231100
TAFMKG
TAF
KMKG 231139Z 2312/2412 33011KT P6SM BKN050
     FM231900 28009KT P6SM BKN050
     FM240300 VRB03KT P6SM SKC=



000
FTUS43 KGRR 231100
TAFLAN
TAF
KLAN 231139Z 2312/2412 31011G19KT P6SM BKN050
     FM232300 28009KT P6SM BKN050
     FM240300 VRB03KT P6SM SKC=



000
FTUS43 KGRR 231100
TAFBTL
TAF
KBTL 231139Z 2312/2412 31011G19KT P6SM BKN050
     FM232200 28009KT P6SM BKN050
     FM240300 VRB03KT P6SM SKC=



000
FTUS43 KGRR 230500
TAFJXN
TAF
KJXN 230540Z 2306/2406 30006KT P6SM BKN040
     FM231600 30013KT P6SM BKN060
     FM240000 29008KT P6SM SKC=



000
FTUS43 KGRR 230500
TAFLAN
TAF
KLAN 230540Z 2306/2406 30006KT P6SM BKN040
     FM231600 30013KT P6SM BKN060
     FM240000 29008KT P6SM SKC=



000
FTUS43 KGRR 230500
TAFBTL
TAF
KBTL 230540Z 2306/2406 29006KT P6SM BKN040
     FM231700 30015KT P6SM BKN060
     FM240000 30015KT P6SM SKC=



000
FTUS43 KGRR 230500
TAFAZO
TAF
KAZO 230540Z 2306/2406 29006KT P6SM BKN040
     FM231700 30015KT P6SM BKN060
     FM240000 30015KT P6SM SKC=



000
FTUS43 KGRR 230500
TAFMKG
TAF
KMKG 230540Z 2306/2406 32006KT P6SM BKN040
     FM231600 30013KT P6SM BKN060
     FM240000 26004KT P6SM SKC=



000
FTUS43 KGRR 230500
TAFGRR
TAF
KGRR 230540Z 2306/2406 30009KT P6SM BKN035
     FM231400 30013KT P6SM BKN040
     FM240000 29009KT P6SM SKC=



000
FTUS43 KGRR 230300 AAA
TAFMKG
TAF AMD
KMKG 230304Z 2303/2324 32007KT P6SM VCSH BKN035
      TEMPO 2303/2306 4SM -SHSN
     FM230600 30009KT P6SM BKN035
     FM231700 30012KT P6SM BKN060
     FM232100 27009KT P6SM SCT250=



000
FTUS43 KGRR 230300 AAA
TAFMKG
TAF AMD
KMKG 230304Z 2303/2324 32007KT P6SM VCSH BKN035
      TEMPO 2303/2306 4SM -SHSN
     FM230600 30009KT P6SM BKN035
     FM231700 30012KT P6SM BKN060
     FM232100 27009KT P6SM SCT250=



000
FTUS43 KGRR 222300
TAFBTL
TAF
KBTL 222325Z 2300/2324 28013G20KT P6SM BKN040
     FM230200 28010KT P6SM BKN040
     FM231700 30015KT P6SM BKN060=



000
FTUS43 KGRR 222300
TAFMKG
TAF
KMKG 222325Z 2300/2324 28010G16KT P6SM VCSH BKN035
      TEMPO 2300/2302 4SM -SHSN
     FM230600 30009KT P6SM BKN035
     FM231700 30012KT P6SM BKN060
     FM232100 27009KT P6SM SCT250=



000
FTUS43 KGRR 222300
TAFAZO
TAF
KAZO 222325Z 2300/2324 28014G20KT P6SM BKN040
     FM230200 28010KT P6SM BKN040
     FM231700 30015KT P6SM BKN060=



000
FTUS43 KGRR 222300
TAFLAN
TAF
KLAN 222325Z 2300/2324 28012G18KT P6SM VCSH BKN040
      TEMPO 2300/2302 4SM -SHSN
     FM230200 27010KT P6SM BKN040
     FM231000 29012KT P6SM BKN040
     FM231600 30016KT P6SM BKN060=



000
FTUS43 KGRR 222300
TAFGRR
TAF
KGRR 222325Z 2300/2324 28015G20KT P6SM -SHSN BKN040
      TEMPO 2300/2302 4SM -SHSN
     FM230300 28011KT P6SM VCSH OVC035
     FM230500 28009KT P6SM BKN025
     FM231200 30013KT P6SM BKN040
     FM231600 29016KT P6SM BKN060=



000
FTUS43 KGRR 222300
TAFJXN
TAF
KJXN 222325Z 2300/2324 28014G20KT P6SM VCSH BKN040
     FM230300 26010KT P6SM BKN040
     FM231100 29010KT P6SM BKN040
     FM231700 29013KT P6SM BKN060=



000
FTUS43 KGRR 222100 AAA
TAFGRR
TAF AMD
KGRR 222103Z 2221/2318 26018G24KT P6SM BKN045
      TEMPO 2221/2224 5SM -SHSN
     FM230000 28012KT 6SM -SHSN BKN040
     FM230500 28009KT P6SM BKN025
     FM231200 30013KT P6SM BKN040
     FM231600 29016KT P6SM BKN060=



000
FTUS43 KGRR 222100 AAA
TAFGRR
TAF AMD
KGRR 222103Z 2221/2318 26018G24KT P6SM BKN045
      TEMPO 2221/2224 5SM -SHSN
     FM230000 28012KT 6SM -SHSN BKN040
     FM230500 28009KT P6SM BKN025
     FM231200 30013KT P6SM BKN040
     FM231600 29016KT P6SM BKN060=



000
FTUS43 KGRR 221700
TAFBTL
TAF
KBTL 221738Z 2218/2318 28015G21KT P6SM BKN035
      TEMPO 2218/2220 4SM -SHSN
     FM222000 28014G21KT P6SM BKN040
      TEMPO 2220/2224 2SM -SHSN
     FM230000 28010KT P6SM BKN040
     FM231700 30015KT P6SM BKN060=



000
FTUS43 KGRR 221700
TAFLAN
TAF
KLAN 221738Z 2218/2318 28018G25KT P6SM BKN050
      TEMPO 2218/2222 3SM -SHSN
     FM222200 28012G18KT P6SM BKN040
      TEMPO 2222/2224 4SM -SHSN
     FM230200 27007KT P6SM BKN040
     FM231000 29012KT P6SM BKN040
     FM231600 30016KT P6SM BKN060=



000
FTUS43 KGRR 221700
TAFAZO
TAF
KAZO 221738Z 2218/2318 30017G24KT P6SM BKN035
      TEMPO 2218/2220 4SM -SHSN
     FM222000 28013G19KT P6SM BKN040
      TEMPO 2220/2224 2SM -SHSN
     FM230300 28010KT P6SM BKN040
     FM231700 30015KT P6SM BKN060=



000
FTUS43 KGRR 221700
TAFJXN
TAF
KJXN 221738Z 2218/2318 29017G25KT P6SM BKN050
      TEMPO 2218/2222 3SM -SHSN
     FM230100 27006KT 6SM -SHSN BKN040
     FM230300 26006KT P6SM BKN040
     FM231100 29010KT P6SM BKN040
     FM231700 29013KT P6SM BKN060=



000
FTUS43 KGRR 221700
TAFMKG
TAF
KMKG 221738Z 2218/2318 28015G22KT P6SM BKN035
      TEMPO 2218/2222 3SM -SHSN
     FM230200 28007KT P6SM BKN035
     FM230600 30010KT P6SM BKN035
     FM231700 30012KT P6SM BKN060=



000
FTUS43 KGRR 221700
TAFGRR
TAF
KGRR 221738Z 2218/2318 29020G27KT P6SM BKN045
      TEMPO 2218/2222 3SM -SHSN
     FM222300 28012KT 6SM -SHSN BKN040
     FM230500 28009KT P6SM BKN025
     FM231200 30013KT P6SM BKN040
     FM231600 29016KT P6SM BKN060=



000
FTUS43 KGRR 221500 AAC
TAFLAN
TAF AMD
KLAN 221505Z 2215/2312 27014G22KT P6SM BKN040
      TEMPO 2218/2221 3SM -SHSN
     FM230100 27009KT P6SM BKN050=



000
FTUS43 KGRR 221500 AAB
TAFGRR
TAF AMD
KGRR 221504Z 2215/2312 28017G25KT P6SM BKN040
      TEMPO 2218/2221 3SM -SHSN
     FM230100 27009KT P6SM VCSH BKN050=



000
FTUS43 KGRR 221400 AAB
TAFJXN
TAF AMD
KJXN 221442Z 2215/2312 29014G23KT P6SM BKN040
      TEMPO 2218/2221 3SM -SHSN
     FM230100 27009KT P6SM BKN050=



000
FTUS43 KGRR 221400 AAB
TAFLAN
TAF AMD
KLAN 221440Z 2215/2312 27013G22KT P6SM BKN040
      TEMPO 2215/2216 BKN025
     FM221600 28017G25KT P6SM BKN040
      TEMPO 2218/2221 3SM -SHSN
     FM230100 27009KT P6SM BKN050=



000
FTUS43 KGRR 221400 AAB
TAFLAN
TAF AMD
KLAN 221440Z 2215/2312 27013G22KT P6SM BKN040
      TEMPO 2215/2216 BKN025
     FM221600 28017G25KT P6SM BKN040
      TEMPO 2218/2221 3SM -SHSN
     FM230100 27009KT P6SM BKN050=



000
FTUS43 KGRR 221400 AAB
TAFBTL
TAF AMD
KBTL 221438Z 2215/2312 28016G23KT P6SM BKN040
      TEMPO 2218/2221 3SM -SHSN
     FM230100 27009KT P6SM BKN050=



000
FTUS43 KGRR 221400 AAA
TAFAZO
TAF AMD
KAZO 221436Z 2215/2312 29015G25KT P6SM BKN040
      TEMPO 2218/2221 3SM -SHSN
     FM230100 27009KT P6SM BKN050=



000
FTUS43 KGRR 221400 AAA
TAFAZO
TAF AMD
KAZO 221436Z 2215/2312 29015G25KT P6SM BKN040
      TEMPO 2218/2221 3SM -SHSN
     FM230100 27009KT P6SM BKN050=



000
FTUS43 KGRR 221400 AAB
TAFMKG
TAF AMD
KMKG 221434Z 2215/2312 30015G23KT P6SM BKN035
     FM221800 28014G22KT P6SM BKN040
      TEMPO 2218/2221 3SM -SHSN
     FM230100 29008KT P6SM VCSH BKN050=



000
FTUS43 KGRR 221400 AAB
TAFMKG
TAF AMD
KMKG 221434Z 2215/2312 30015G23KT P6SM BKN035
     FM221800 28014G22KT P6SM BKN040
      TEMPO 2218/2221 3SM -SHSN
     FM230100 29008KT P6SM VCSH BKN050=



000
FTUS43 KGRR 221300 AAA
TAFJXN
TAF AMD
KJXN 221349Z 2214/2312 28013G22KT P6SM BKN035
      TEMPO 2214/2216 BKN025
     FM221600 28015G23KT P6SM BKN040
      TEMPO 2218/2220 3SM -SHSN
     FM230100 27009KT P6SM BKN050=



000
FTUS43 KGRR 221300 AAA
TAFLAN
TAF AMD
KLAN 221345Z 2214/2312 28012G18KT P6SM BKN035
      TEMPO 2214/2217 BKN025
     FM221700 28017G25KT P6SM BKN040
      TEMPO 2218/2220 3SM -SHSN
     FM230100 27009KT P6SM BKN050=



000
FTUS43 KGRR 221300 AAA
TAFBTL
TAF AMD
KBTL 221342Z 2214/2312 28015G21KT P6SM BKN035
      TEMPO 2214/2216 BKN025
     FM221600 28019G27KT P6SM BKN040
      TEMPO 2218/2220 3SM -SHSN
     FM230100 27009KT P6SM BKN050=



000
FTUS43 KGRR 221300 AAA
TAFGRR
TAF AMD
KGRR 221339Z 2214/2312 28016G23KT P6SM BKN035
      TEMPO 2214/2216 BKN025
     FM221600 28020G28KT P6SM BKN040
      TEMPO 2218/2220 3SM -SHSN
     FM230100 27009KT P6SM VCSH BKN050=



000
FTUS43 KGRR 221300 AAA
TAFMKG
TAF AMD
KMKG 221335Z 2214/2312 29015G21KT P6SM BKN035
      TEMPO 2214/2215 BKN025
     FM221800 28014G22KT P6SM OVC040
      TEMPO 2218/2220 3SM -SHSN
     FM230100 29008KT P6SM VCSH BKN050=



000
FTUS43 KGRR 221300 AAA
TAFMKG
TAF AMD
KMKG 221335Z 2214/2312 29015G21KT P6SM BKN035
      TEMPO 2214/2215 BKN025
     FM221800 28014G22KT P6SM OVC040
      TEMPO 2218/2220 3SM -SHSN
     FM230100 29008KT P6SM VCSH BKN050=



000
FTUS43 KGRR 221100
TAFMKG
TAF
KMKG 221140Z 2212/2312 29014G22KT P6SM VCSH BKN035
      TEMPO 2212/2215 4SM -SHSN BKN025
     FM230100 29008KT P6SM VCSH BKN050=



000
FTUS43 KGRR 221100
TAFAZO
TAF
KAZO 221140Z 2212/2312 29013G21KT P6SM VCSH BKN025
     FM221500 28018G27KT P6SM VCSH BKN040
     FM230100 27009KT P6SM BKN050=



000
FTUS43 KGRR 221100
TAFGRR
TAF
KGRR 221140Z 2212/2312 28013G21KT P6SM VCSH BKN025
      TEMPO 2212/2215 4SM -SHSN
     FM221500 28018G27KT P6SM VCSH BKN040
     FM230100 27009KT P6SM VCSH BKN050=



000
FTUS43 KGRR 221100
TAFLAN
TAF
KLAN 221140Z 2212/2312 27012G20KT 6SM -SHSN BKN025
     FM221500 28018G27KT P6SM VCSH BKN040
     FM230100 27009KT P6SM BKN050=



000
FTUS43 KGRR 221100
TAFBTL
TAF
KBTL 221140Z 2212/2312 29013G21KT P6SM VCSH BKN025
     FM221500 28018G27KT P6SM VCSH BKN040
     FM230100 27009KT P6SM BKN050=



000
FTUS43 KGRR 221100
TAFJXN
TAF
KJXN 221140Z 2212/2312 26012G20KT 6SM -SHSN BKN025
     FM221500 28015G25KT P6SM VCSH BKN040
     FM230100 27009KT P6SM BKN050=



000
FTUS43 KGRR 221100
TAFBTL
TAF
KBTL 221140Z 2212/2312 29013G21KT P6SM VCSH BKN025
     FM221500 28018G27KT P6SM VCSH BKN040
     FM230100 27009KT P6SM BKN050=



000
FTUS43 KGRR 221100
TAFAZO
TAF
KAZO 221140Z 2212/2312 29013G21KT P6SM VCSH BKN025
     FM221500 28018G27KT P6SM VCSH BKN040
     FM230100 27009KT P6SM BKN050=



000
FTUS43 KGRR 221100
TAFGRR
TAF
KGRR 221140Z 2212/2312 28013G21KT P6SM VCSH BKN025
      TEMPO 2212/2215 4SM -SHSN
     FM221500 28018G27KT P6SM VCSH BKN040
     FM230100 27009KT P6SM VCSH BKN050=



000
FTUS43 KGRR 221100
TAFMKG
TAF
KMKG 221140Z 2212/2312 29014G22KT P6SM VCSH BKN035
      TEMPO 2212/2215 4SM -SHSN BKN025
     FM230100 29008KT P6SM VCSH BKN050=



000
FTUS43 KGRR 221100
TAFLAN
TAF
KLAN 221140Z 2212/2312 27012G20KT 6SM -SHSN BKN025
     FM221500 28018G27KT P6SM VCSH BKN040
     FM230100 27009KT P6SM BKN050=



000
FTUS43 KGRR 221100
TAFJXN
TAF
KJXN 221140Z 2212/2312 26012G20KT 6SM -SHSN BKN025
     FM221500 28015G25KT P6SM VCSH BKN040
     FM230100 27009KT P6SM BKN050=



000
FTUS43 KGRR 221000 AAA
TAFJXN
TAF AMD
KJXN 221026Z 2210/2306 26010KT 6SM -SHSN BKN025
     FM221500 28015G25KT P6SM VCSH BKN040
     FM222300 25005KT P6SM BKN050=



000
FTUS43 KGRR 221000 AAA
TAFJXN
TAF AMD
KJXN 221026Z 2210/2306 26010KT 6SM -SHSN BKN025
     FM221500 28015G25KT P6SM VCSH BKN040
     FM222300 25005KT P6SM BKN050=



000
FTUS43 KGRR 221000 AAA
TAFLAN
TAF AMD
KLAN 221022Z 2210/2306 28011G19KT 6SM -SHSN BKN025
     FM221500 28015G25KT P6SM VCSH BKN040
     FM222300 25005KT P6SM BKN050=



000
FTUS43 KGRR 221000 AAA
TAFLAN
TAF AMD
KLAN 221022Z 2210/2306 28011G19KT 6SM -SHSN BKN025
     FM221500 28015G25KT P6SM VCSH BKN040
     FM222300 25005KT P6SM BKN050=



000
FTUS43 KGRR 221000 AAA
TAFBTL
TAF AMD
KBTL 221021Z 2210/2306 27011G18KT 6SM -SHSN BKN025
     FM221500 27014G24KT P6SM VCSH BKN040
     FM222300 25005KT P6SM BKN050=



000
FTUS43 KGRR 221000 AAA
TAFBTL
TAF AMD
KBTL 221021Z 2210/2306 27011G18KT 6SM -SHSN BKN025
     FM221500 27014G24KT P6SM VCSH BKN040
     FM222300 25005KT P6SM BKN050=



000
FTUS43 KGRR 221000 AAA
TAFAZO
TAF AMD
KAZO 221021Z 2210/2306 28011G20KT 6SM -SHSN BKN025
     FM221500 27014G24KT P6SM VCSH BKN040
     FM222300 25005KT P6SM BKN050=



000
FTUS43 KGRR 221000 AAA
TAFAZO
TAF AMD
KAZO 221021Z 2210/2306 28011G20KT 6SM -SHSN BKN025
     FM221500 27014G24KT P6SM VCSH BKN040
     FM222300 25005KT P6SM BKN050=



000
FTUS43 KGRR 221000 AAA
TAFGRR
TAF AMD
KGRR 221020Z 2210/2306 29010G18KT 6SM -SHSN BKN025
     FM221500 27014G24KT P6SM VCSH BKN040
     FM222300 25005KT P6SM VCSH BKN050=



000
FTUS43 KGRR 221000 AAA
TAFGRR
TAF AMD
KGRR 221020Z 2210/2306 29010G18KT 6SM -SHSN BKN025
     FM221500 27014G24KT P6SM VCSH BKN040
     FM222300 25005KT P6SM VCSH BKN050=



000
FTUS43 KGRR 220500
TAFBTL
TAF
KBTL 220539Z 2206/2306 27011KT P6SM SCT060
     FM221200 26011G18KT 4SM -SHSN OVC025
     FM221500 27014G24KT P6SM VCSH BKN040
     FM222300 25005KT P6SM BKN050=



000
FTUS43 KGRR 220500
TAFAZO
TAF
KAZO 220539Z 2206/2306 27011KT P6SM SCT060
     FM221200 26011G18KT 4SM -SHSN OVC025
     FM221500 27014G24KT P6SM VCSH BKN040
     FM222300 25005KT P6SM BKN050=



000
FTUS43 KGRR 220500
TAFLAN
TAF
KLAN 220539Z 2206/2306 25011KT P6SM BKN050
     FM221500 28015G25KT P6SM VCSH BKN040
     FM222300 25005KT P6SM BKN050=



000
FTUS43 KGRR 220500
TAFJXN
TAF
KJXN 220539Z 2206/2306 25010KT P6SM SCT060
     FM221500 28015G25KT P6SM VCSH BKN040
     FM222300 25005KT P6SM BKN050=



000
FTUS43 KGRR 220500
TAFBTL
TAF
KBTL 220539Z 2206/2306 27011KT P6SM SCT060
     FM221200 26011G18KT 4SM -SHSN OVC025
     FM221500 27014G24KT P6SM VCSH BKN040
     FM222300 25005KT P6SM BKN050=



000
FTUS43 KGRR 220500
TAFJXN
TAF
KJXN 220539Z 2206/2306 25010KT P6SM SCT060
     FM221500 28015G25KT P6SM VCSH BKN040
     FM222300 25005KT P6SM BKN050=



000
FTUS43 KGRR 220500
TAFMKG
TAF
KMKG 220539Z 2206/2306 27011G18KT P6SM VCSH BKN050
     FM221000 29010G18KT 4SM -SHSN OVC025
     FM221500 28013G23KT P6SM VCSH BKN040
     FM222300 25005KT P6SM VCSH BKN050=



000
FTUS43 KGRR 220500
TAFGRR
TAF
KGRR 220539Z 2206/2306 27011G18KT P6SM VCSH BKN050
     FM221100 26010G18KT 4SM -SHSN OVC025
     FM221500 27014G24KT P6SM VCSH BKN040
     FM222300 25005KT P6SM VCSH BKN050=



000
FTUS43 KGRR 220500
TAFAZO
TAF
KAZO 220539Z 2206/2306 27011KT P6SM SCT060
     FM221200 26011G18KT 4SM -SHSN OVC025
     FM221500 27014G24KT P6SM VCSH BKN040
     FM222300 25005KT P6SM BKN050=



000
FTUS43 KGRR 220500
TAFLAN
TAF
KLAN 220539Z 2206/2306 25011KT P6SM BKN050
     FM221500 28015G25KT P6SM VCSH BKN040
     FM222300 25005KT P6SM BKN050=



000
FTUS43 KGRR 220500
TAFMKG
TAF
KMKG 220539Z 2206/2306 27011G18KT P6SM VCSH BKN050
     FM221000 29010G18KT 4SM -SHSN OVC025
     FM221500 28013G23KT P6SM VCSH BKN040
     FM222300 25005KT P6SM VCSH BKN050=



000
FTUS43 KGRR 220500
TAFGRR
TAF
KGRR 220539Z 2206/2306 27011G18KT P6SM VCSH BKN050
     FM221100 26010G18KT 4SM -SHSN OVC025
     FM221500 27014G24KT P6SM VCSH BKN040
     FM222300 25005KT P6SM VCSH BKN050=



    US Dept of Commerce
    National Oceanic and Atmospheric Administration
    National Weather Service
    1325 East West Highway
    Silver Spring, MD 20910
    Page Author: NWS Internet Services Team
Disclaimer
Information Quality
Credits
Glossary
Privacy Policy
Freedom of Information Act (FOIA)
About Us
Career Opportunities